Time;durP1;ratioP1;P1;durP2;ratioP2;P2;SDS_P1;SDS_P2;PMS_P1;PMS_P2;Temp;Humidity;BMP_temperature;BMP_pressure;BME280_temperature;BME280_humidity;BME280_pressure;Samples;Min_cycle;Max_cycle;Signal;HPM_P1;HPM_P2
2022/07/28 00:01:51;;;;;;;6.87;5.03;;;;;;;22.15;71.52;100037.41;31844288;27;20544;-80
2022/07/28 00:16:53;;;;;;;8.30;5.40;;;;;;;22.14;71.91;100043.44;31814001;27;20047;-80
2022/07/28 00:31:55;;;;;;;7.85;5.63;;;;;;;22.14;72.46;100051.72;31791941;27;20248;-80
2022/07/28 00:46:57;;;;;;;8.80;5.80;;;;;;;22.02;73.42;100057.22;31764274;27;20047;-79
2022/07/28 01:02:00;;;;;;;8.77;5.10;;;;;;;21.66;74.08;100060.84;31804924;27;20572;-79
2022/07/28 01:17:10;;;;;;;11.10;6.10;;;;;;;21.48;76.05;100061.25;31800699;27;20059;-79
2022/07/28 01:32:20;;;;;;;8.98;6.13;;;;;;;21.27;76.59;100082.69;31786112;27;20494;-80
2022/07/28 01:47:24;;;;;;;15.10;8.30;;;;;;;21.48;75.65;100070.28;31791199;27;20043;-79
2022/07/28 02:02:29;;;;;;;10.30;6.15;;;;;;;21.58;76.54;100079.13;31769280;27;20484;-80
2022/07/28 02:17:34;;;;;;;11.30;6.20;;;;;;;21.52;77.15;100083.84;31810524;27;20055;-79
2022/07/28 02:32:52;;;;;;;8.43;6.15;;;;;;;21.38;78.54;100102.88;31802346;27;20479;-80
2022/07/28 02:48:04;;;;;;;12.23;7.32;;;;;;;21.46;78.99;100102.41;31810640;27;20700;-79
2022/07/28 03:03:07;;;;;;;10.20;6.30;;;;;;;21.60;78.63;100112.53;31800296;27;20480;-79
2022/07/28 03:18:09;;;;;;;11.93;6.38;;;;;;;21.84;78.26;100115.66;31813382;27;20127;-79
2022/07/28 03:33:11;;;;;;;10.73;6.75;;;;;;;22.15;77.48;100111.28;31820113;27;20083;-79
2022/07/28 03:48:14;;;;;;;22.77;10.53;;;;;;;22.77;76.01;100130.31;31796870;27;20150;-80
2022/07/28 04:03:17;;;;;;;14.30;9.47;;;;;;;23.38;74.86;100124.00;31836021;27;20551;-78
2022/07/28 04:18:41;;;;;;;;;;;;;;;23.85;75.54;100132.47;31817525;27;20488;-79
2022/07/28 04:33:43;;;;;;;;;;;;;;;24.41;75.10;100151.66;31829758;27;19919;-79
2022/07/28 04:48:45;;;;;;;9.45;5.95;;;;;;;24.88;74.09;100157.91;31807531;27;20373;-80
2022/07/28 05:03:48;;;;;;;15.98;6.95;;;;;;;25.38;72.63;100171.41;31762020;27;20518;-79
2022/07/28 05:18:49;;;;;;;;;;;;;;;25.99;70.55;100181.16;31796546;27;20062;-79
2022/07/28 05:33:52;;;;;;;8.67;6.67;;;;;;;26.67;66.41;100181.09;31833179;27;19934;-79
2022/07/28 05:48:54;;;;;;;12.57;7.07;;;;;;;27.09;64.39;100191.38;31780938;27;20043;-80
2022/07/28 06:03:56;;;;;;;11.82;7.35;;;;;;;27.81;61.94;100191.41;31814434;27;20115;-80
2022/07/28 06:19:25;;;;;;;12.57;6.05;;;;;;;28.44;55.98;100198.00;31805473;27;20047;-81
2022/07/28 06:34:27;;;;;;;15.98;6.72;;;;;;;28.71;54.81;100188.28;31830447;27;20054;-80
2022/07/28 06:49:29;;;;;;;8.75;5.85;;;;;;;29.22;52.21;100187.84;31816458;27;20551;-81
2022/07/28 07:04:32;;;;;;;6.10;4.78;;;;;;;29.89;49.05;100191.72;31823075;27;20056;-84
2022/07/28 07:19:37;;;;;;;6.75;4.90;;;;;;;30.33;47.59;100194.56;31819863;27;20051;-83
2022/07/28 07:34:39;;;;;;;12.60;4.20;;;;;;;30.79;45.27;100206.66;31800710;27;20453;-81
2022/07/28 07:49:41;;;;;;;7.30;4.85;;;;;;;31.20;43.97;100205.63;31806852;27;20348;-81
2022/07/28 08:04:46;;;;;;;7.68;5.20;;;;;;;32.03;42.72;100210.44;31814659;27;20479;-80
2022/07/28 08:19:49;;;;;;;8.18;5.28;;;;;;;32.33;40.87;100209.59;31817974;27;20061;-79
2022/07/28 08:34:53;;;;;;;6.85;4.15;;;;;;;32.85;40.08;100219.09;31804606;27;20134;-75
2022/07/28 08:50:23;;;;;;;7.05;4.65;;;;;;;33.36;38.34;100206.53;31804537;27;20093;-82
2022/07/28 09:05:26;;;;;;;6.82;3.95;;;;;;;33.08;37.69;100198.50;31783600;27;20058;-78
2022/07/28 09:20:28;;;;;;;5.35;4.18;;;;;;;34.26;37.23;100214.66;31815926;27;20069;-83
2022/07/28 09:35:30;;;;;;;5.05;3.97;;;;;;;34.05;36.03;100214.34;31790071;27;20485;-82
2022/07/28 09:50:33;;;;;;;5.35;4.30;;;;;;;34.85;35.81;100217.28;31802939;27;20052;-78
2022/07/28 10:05:39;;;;;;;8.38;5.82;;;;;;;35.31;33.60;100213.78;31809657;27;20050;-79
2022/07/28 10:20:43;;;;;;;4.73;4.23;;;;;;;35.82;33.58;100226.84;31758102;27;20063;-77
2022/07/28 10:35:48;;;;;;;7.07;5.03;;;;;;;34.32;35.32;100200.34;31797677;27;20075;-80
2022/07/28 10:50:58;;;;;;;7.55;5.82;;;;;;;36.02;32.40;100210.63;31804460;27;20043;-77
2022/07/28 11:06:44;;;;;;;4.85;3.70;;;;;;;37.26;28.77;100193.97;31798696;27;20051;-78
2022/07/28 11:22:20;;;;;;;4.63;2.97;;;;;;;34.74;32.08;100191.66;31823332;27;20051;-78
2022/07/28 11:37:23;;;;;;;4.05;3.33;;;;;;;33.31;34.21;100190.66;31813356;27;20798;-83
2022/07/28 11:52:25;;;;;;;5.72;4.18;;;;;;;32.48;36.11;100175.06;31785646;27;20086;-77
2022/07/28 12:07:33;;;;;;;4.47;3.38;;;;;;;31.85;36.55;100166.69;31830231;27;20128;-80
2022/07/28 12:22:36;;;;;;;4.37;3.37;;;;;;;31.86;37.23;100173.81;31807942;27;20515;-81
2022/07/28 12:37:38;;;;;;;4.43;3.80;;;;;;;31.48;37.92;100177.38;31838477;27;20508;-83
2022/07/28 12:53:03;;;;;;;5.65;3.70;;;;;;;30.86;38.45;100159.06;31806383;27;20517;-82
2022/07/28 13:08:05;;;;;;;3.70;3.08;;;;;;;31.22;37.69;100158.16;31835957;27;20124;-78
2022/07/28 13:23:22;;;;;;;8.07;4.07;;;;;;;31.22;37.61;100152.53;31791702;27;20471;-87
2022/07/28 13:38:26;;;;;;;14.23;10.73;;;;;;;31.22;37.85;100169.38;31845079;27;20427;-80
2022/07/28 13:53:33;;;;;;;5.03;3.42;;;;;;;31.04;37.41;100164.84;31865000;27;20047;-85
2022/07/28 14:08:35;;;;;;;9.13;3.72;;;;;;;30.92;37.79;100161.69;31826450;27;20055;-81
2022/07/28 14:23:42;;;;;;;4.68;3.47;;;;;;;30.93;37.59;100151.22;31817526;27;20465;-80
2022/07/28 14:38:46;;;;;;;4.30;3.55;;;;;;;30.70;38.58;100146.34;31819325;27;20127;-81
2022/07/28 14:53:56;;;;;;;9.27;4.67;;;;;;;30.52;39.02;100144.56;31796255;27;20051;-80
2022/07/28 15:08:59;;;;;;;5.13;3.95;;;;;;;30.33;39.68;100160.97;31838948;27;20059;-86
2022/07/28 15:24:02;;;;;;;5.60;4.20;;;;;;;30.02;41.33;100177.63;31824330;27;20053;-80
2022/07/28 15:39:07;;;;;;;9.48;5.20;;;;;;;30.06;41.38;100183.63;31839642;27;20130;-71
2022/07/28 15:54:09;;;;;;;5.63;4.10;;;;;;;30.01;41.64;100186.56;31809133;27;20051;-72
2022/07/28 16:09:13;;;;;;;5.45;3.95;;;;;;;29.88;42.09;100183.88;31774173;27;20051;-83
2022/07/28 16:24:15;;;;;;;8.15;5.38;;;;;;;29.55;43.62;100200.25;31800873;27;20061;-80
2022/07/28 16:39:18;;;;;;;8.23;6.05;;;;;;;29.20;44.80;100212.81;31787649;27;20047;-72
2022/07/28 16:54:20;;;;;;;9.95;5.20;;;;;;;28.88;46.26;100209.50;31812867;27;20055;-80
2022/07/28 17:09:23;;;;;;;8.65;4.63;;;;;;;28.48;49.19;100224.31;31773069;27;20047;-83
2022/07/28 17:24:26;;;;;;;11.20;5.78;;;;;;;28.15;50.93;100222.94;31688283;22;20060;-78
2022/07/28 17:39:28;;;;;;;8.15;5.65;;;;;;;27.78;53.51;100242.69;31581911;28;20141;-81
2022/07/28 17:55:33;;;;;;;8.80;5.40;;;;;;;27.29;56.17;100276.41;31622987;28;20056;-79
2022/07/28 18:10:23;;;;;;;8.63;5.75;;;;;;;27.04;60.71;100300.09;31605764;28;20093;-77
2022/07/28 18:25:28;;;;;;;9.05;5.78;;;;;;;26.75;59.57;100316.38;31577673;28;20147;-81
2022/07/28 18:40:30;;;;;;;6.80;5.40;;;;;;;26.50;61.48;100337.19;31572424;28;20411;-77
2022/07/28 18:55:32;;;;;;;8.88;4.43;;;;;;;26.31;61.85;100336.41;31599763;28;20519;-77
2022/07/28 19:10:35;;;;;;;8.98;4.30;;;;;;;26.03;63.58;100334.59;31615113;28;20048;-81
2022/07/28 19:25:38;;;;;;;6.97;4.85;;;;;;;25.80;63.58;100341.66;31619977;28;20527;-80
2022/07/28 19:40:41;;;;;;;6.63;4.35;;;;;;;25.62;63.90;100343.03;31598532;28;20108;-81
2022/07/28 19:55:44;;;;;;;8.88;4.57;;;;;;;25.40;64.82;100357.84;31569949;28;20045;-79
2022/07/28 20:10:54;;;;;;;6.43;3.88;;;;;;;25.18;64.87;100349.63;31600736;28;20047;-81
2022/07/28 20:25:56;;;;;;;7.90;4.38;;;;;;;24.96;66.12;100358.06;31579277;28;20052;-79
2022/07/28 20:40:58;;;;;;;;;;;;;;;24.76;70.23;100373.78;31588139;28;20138;-79
2022/07/28 20:56:00;;;;;;;5.00;4.10;;;;;;;24.60;68.72;100377.34;31575332;28;20011;-80
2022/07/28 21:11:09;;;;;;;6.07;4.22;;;;;;;24.48;70.56;100386.97;31556105;28;20056;-78
2022/07/28 21:26:12;;;;;;;8.60;4.78;;;;;;;24.35;70.27;100398.59;31602984;28;20505;-79
2022/07/28 21:41:14;;;;;;;6.13;4.75;;;;;;;24.13;70.95;100401.34;31571843;28;20064;-79
2022/07/28 21:56:16;;;;;;;6.87;4.73;;;;;;;23.93;71.97;100399.59;31601136;28;20040;-78
2022/07/28 22:11:22;;;;;;;9.73;5.10;;;;;;;23.74;74.12;100404.88;31560082;28;20052;-81
2022/07/28 22:26:24;;;;;;;9.13;5.75;;;;;;;23.61;73.71;100417.72;31610689;28;20118;-78
2022/07/28 22:41:26;;;;;;;9.83;6.30;;;;;;;23.48;74.22;100405.03;31598353;28;20497;-80
2022/07/28 22:56:28;;;;;;;10.50;7.33;;;;;;;23.52;74.52;100412.34;31620799;28;20505;-80
2022/07/28 23:11:38;;;;;;;11.65;6.70;;;;;;;23.39;76.14;100429.44;31606641;28;20056;-80
2022/07/28 23:26:40;;;;;;;10.33;6.13;;;;;;;23.01;78.21;100439.13;31596666;28;20048;-80
2022/07/28 23:41:42;;;;;;;10.47;6.10;;;;;;;22.65;81.56;100463.56;31597974;28;20091;-79
2022/07/28 23:56:44;;;;;;;8.10;5.67;;;;;;;22.40;83.70;100461.59;31615023;28;20075;-79
